createdAt,value
2017-08-21T00:02:08.775Z,35.70
2017-08-21T00:04:37.731Z,35.80
2017-08-21T00:07:06.132Z,35.80
2017-08-21T00:09:34.717Z,35.70
2017-08-21T00:12:03.655Z,35.70
2017-08-21T00:14:31.959Z,35.70
2017-08-21T00:17:01.399Z,35.60
2017-08-21T00:19:30.142Z,35.60
2017-08-21T00:21:58.247Z,35.60
2017-08-21T00:24:27.022Z,35.50
2017-08-21T00:26:55.506Z,35.50
2017-08-21T00:29:23.969Z,35.50
2017-08-21T00:31:52.082Z,35.50
2017-08-21T00:34:20.817Z,35.40
2017-08-21T00:36:49.406Z,35.40
2017-08-21T00:39:18.127Z,35.40
2017-08-21T00:41:47.287Z,35.40
2017-08-21T00:44:16.006Z,35.40
2017-08-21T00:46:44.459Z,35.40
2017-08-21T00:49:13.219Z,35.30
2017-08-21T00:51:41.934Z,35.30
2017-08-21T00:54:10.655Z,35.40
2017-08-21T00:56:39.141Z,35.40
2017-08-21T00:59:07.662Z,35.40
2017-08-21T01:01:36.482Z,35.40
2017-08-21T01:04:04.688Z,35.40
2017-08-21T01:06:33.007Z,35.40
2017-08-21T01:09:01.038Z,35.40
2017-08-21T01:11:29.766Z,35.40
2017-08-21T01:13:58.491Z,35.40
2017-08-21T01:16:27.206Z,35.40
2017-08-21T01:18:55.786Z,35.30
2017-08-21T01:21:24.239Z,35.30
2017-08-21T01:23:52.895Z,35.20
2017-08-21T01:26:21.746Z,35.20
2017-08-21T01:28:50.153Z,35.10
2017-08-21T01:31:18.195Z,35.10
2017-08-21T01:33:47.746Z,35.00
2017-08-21T01:36:16.334Z,35.00
2017-08-21T01:38:45.081Z,35.00
2017-08-21T01:41:13.667Z,34.90
2017-08-21T01:43:41.695Z,35.00
2017-08-21T01:46:10.142Z,35.00
2017-08-21T01:48:38.878Z,34.90
2017-08-21T01:51:07.662Z,35.00
2017-08-21T01:53:36.311Z,35.00
2017-08-21T01:56:05.101Z,34.90
2017-08-21T01:58:33.705Z,35.00
2017-08-21T02:01:02.316Z,35.00
2017-08-21T02:03:30.790Z,35.00
2017-08-21T02:05:59.356Z,34.90
2017-08-21T02:08:28.035Z,34.90
2017-08-21T02:10:56.886Z,34.80
2017-08-21T02:13:26.154Z,34.90
2017-08-21T02:15:54.170Z,34.90
2017-08-21T02:18:23.096Z,34.90
2017-08-21T02:20:51.134Z,34.90
2017-08-21T02:23:19.740Z,35.00
2017-08-21T02:25:48.542Z,34.90
2017-08-21T02:28:17.154Z,35.00
2017-08-21T02:30:45.878Z,35.00
2017-08-21T02:33:14.375Z,35.00
2017-08-21T02:35:42.782Z,35.10
2017-08-21T02:51:54.474Z,35.80
2017-08-21T02:54:22.502Z,35.70
2017-08-21T02:56:51.022Z,35.60
2017-08-21T02:59:19.837Z,35.60
2017-08-21T03:01:48.662Z,35.60
2017-08-21T03:04:17.062Z,35.60
2017-08-21T03:06:45.801Z,35.60
2017-08-21T03:09:14.386Z,35.60
2017-08-21T03:11:42.406Z,35.60
2017-08-21T03:14:11.142Z,35.60
2017-08-21T03:16:39.866Z,35.60
2017-08-21T03:19:08.279Z,35.40
2017-08-21T03:21:36.434Z,35.50
2017-08-21T03:24:05.906Z,35.40
2017-08-21T03:26:34.493Z,35.60
2017-08-21T03:29:03.310Z,35.60
2017-08-21T03:31:31.710Z,35.70
2017-08-21T03:34:00.517Z,35.90
2017-08-21T03:36:29.202Z,35.90
2017-08-21T03:38:57.231Z,36.00
2017-08-21T03:41:25.767Z,36.00
2017-08-21T03:43:54.579Z,36.00
2017-08-21T03:46:23.298Z,36.00
2017-08-21T03:48:51.690Z,36.10
2017-08-21T03:51:20.406Z,36.20
2017-08-21T03:53:49.087Z,36.40
2017-08-21T03:56:17.838Z,36.60
2017-08-21T03:58:46.426Z,36.80
2017-08-21T04:01:14.950Z,36.80
2017-08-21T04:03:43.630Z,36.90
2017-08-21T04:06:12.486Z,37.20
2017-08-21T04:08:40.618Z,37.30
2017-08-21T04:11:09.210Z,37.10
2017-08-21T04:13:38.144Z,37.50
2017-08-21T04:16:06.956Z,37.90
2017-08-21T04:18:35.426Z,38.20
2017-08-21T04:21:04.146Z,38.40
2017-08-21T04:23:32.900Z,38.60
2017-08-21T04:26:01.295Z,39.10
2017-08-21T04:28:29.999Z,39.70
2017-08-21T04:30:58.678Z,40.50
2017-08-21T04:33:27.356Z,40.90
2017-08-21T04:35:56.014Z,41.50
2017-08-21T04:38:24.546Z,42.30
2017-08-21T04:40:53.327Z,43.40
2017-08-21T04:43:22.186Z,43.20
2017-08-21T04:45:50.223Z,42.50
2017-08-21T04:48:18.803Z,42.20
2017-08-21T04:50:47.615Z,42.10
2017-08-21T04:53:16.088Z,42.60
2017-08-21T04:55:44.633Z,43.10
2017-08-21T04:58:13.450Z,44.00
2017-08-21T05:00:42.171Z,44.40
2017-08-21T05:03:11.359Z,44.70
2017-08-21T05:05:39.894Z,45.30
2017-08-21T05:08:08.583Z,45.60
2017-08-21T05:10:37.091Z,44.80
2017-08-21T05:13:05.826Z,44.40
2017-08-21T05:15:34.438Z,44.20
2017-08-21T05:18:03.050Z,43.40
2017-08-21T05:20:32.700Z,43.70
2017-08-21T05:23:01.218Z,43.70
2017-08-21T05:25:29.967Z,43.90
2017-08-21T05:27:58.257Z,44.80
2017-08-21T05:30:26.875Z,46.20
2017-08-21T05:32:55.559Z,45.90
2017-08-21T05:35:24.410Z,46.40
2017-08-21T05:37:52.478Z,46.70
2017-08-21T05:40:21.008Z,47.00
2017-08-21T05:42:49.960Z,46.80
2017-08-21T05:45:18.672Z,46.10
2017-08-21T05:47:47.210Z,45.90
2017-08-21T05:50:15.965Z,45.50
2017-08-21T05:52:44.651Z,45.70
2017-08-21T05:55:13.053Z,45.50
2017-08-21T05:57:41.179Z,45.40
2017-08-21T06:00:09.670Z,45.50
2017-08-21T06:02:38.271Z,45.60
2017-08-21T06:05:06.982Z,45.20
2017-08-21T06:07:35.031Z,45.50
2017-08-21T06:10:03.611Z,46.10
2017-08-21T06:12:32.399Z,46.40
2017-08-21T06:15:01.251Z,47.80
2017-08-21T06:17:29.282Z,48.20
2017-08-21T06:19:58.088Z,47.80
2017-08-21T06:22:26.114Z,48.20
2017-08-21T06:24:54.718Z,48.40
2017-08-21T06:27:23.629Z,48.20
2017-08-21T06:29:52.355Z,48.80
2017-08-21T06:32:20.763Z,49.20
2017-08-21T06:34:49.598Z,48.80
2017-08-21T06:37:18.174Z,48.30
2017-08-21T06:39:46.900Z,47.20
2017-08-21T06:42:15.467Z,47.30
2017-08-21T06:44:43.903Z,46.80
2017-08-21T06:47:12.591Z,46.80
2017-08-21T06:49:41.442Z,46.80
2017-08-21T06:52:10.538Z,46.80
2017-08-21T06:54:38.994Z,46.50
2017-08-21T06:57:07.757Z,46.50
2017-08-21T06:59:36.539Z,46.60
2017-08-21T07:02:05.319Z,46.30
2017-08-21T07:04:33.878Z,45.90
2017-08-21T07:07:02.394Z,46.20
2017-08-21T07:09:31.079Z,46.30
2017-08-21T07:11:59.203Z,46.30
2017-08-21T07:14:27.947Z,46.30
2017-08-21T07:16:55.982Z,46.80
2017-08-21T07:19:24.638Z,47.40
2017-08-21T07:21:53.218Z,48.10
2017-08-21T07:24:21.935Z,48.70
2017-08-21T07:26:50.091Z,49.10
2017-08-21T07:29:18.658Z,49.50
2017-08-21T07:31:47.382Z,49.60
2017-08-21T07:34:16.042Z,48.50
2017-08-21T07:36:44.599Z,48.50
2017-08-21T07:39:13.278Z,48.50
2017-08-21T07:41:42.240Z,47.90
2017-08-21T07:44:10.691Z,47.80
2017-08-21T07:46:39.241Z,47.20
2017-08-21T07:49:08.142Z,46.70
2017-08-21T07:51:36.878Z,45.80
2017-08-21T07:54:05.277Z,46.00
2017-08-21T07:56:34.024Z,45.80
2017-08-21T07:59:02.682Z,45.80
2017-08-21T08:01:31.355Z,45.50
2017-08-21T08:03:59.940Z,45.20
2017-08-21T08:06:28.538Z,45.40
2017-08-21T08:08:57.218Z,45.40
2017-08-21T08:11:26.111Z,45.30
2017-08-21T08:13:54.890Z,45.20
2017-08-21T08:16:23.475Z,45.10
2017-08-21T08:18:52.282Z,45.00
2017-08-21T08:21:20.970Z,45.00
2017-08-21T08:23:49.035Z,44.90
2017-08-21T08:26:17.827Z,44.60
2017-08-21T08:28:46.335Z,44.60
2017-08-21T08:31:14.984Z,44.70
2017-08-21T08:33:43.643Z,44.70
2017-08-21T08:36:12.090Z,44.50
2017-08-21T08:38:40.738Z,44.60
2017-08-21T08:41:09.293Z,44.40
2017-08-21T08:43:37.923Z,44.50
2017-08-21T08:46:06.606Z,44.40
2017-08-21T08:48:35.459Z,44.30
2017-08-21T08:51:03.865Z,44.30
2017-08-21T08:53:32.467Z,44.40
2017-08-21T08:56:01.382Z,44.40
2017-08-21T08:58:30.106Z,44.20
2017-08-21T09:00:58.508Z,44.30
2017-08-21T09:03:27.224Z,44.30
2017-08-21T09:05:56.002Z,44.20
2017-08-21T09:08:24.782Z,44.20
2017-08-21T09:10:53.446Z,44.20
2017-08-21T09:13:21.967Z,44.40
2017-08-21T09:15:50.678Z,44.30
2017-08-21T09:18:19.647Z,44.30
2017-08-21T09:20:48.114Z,44.00
2017-08-21T09:23:16.714Z,44.00
2017-08-21T09:25:45.498Z,43.80
2017-08-21T09:28:14.175Z,43.60
2017-08-21T09:30:42.706Z,43.90
2017-08-21T09:33:11.462Z,44.00
2017-08-21T09:35:40.167Z,43.70
2017-08-21T09:38:08.999Z,43.60
2017-08-21T09:40:37.527Z,43.60
2017-08-21T09:43:06.114Z,43.50
2017-08-21T09:45:34.746Z,43.40
2017-08-21T09:48:03.582Z,43.40
2017-08-21T09:50:32.544Z,43.10
2017-08-21T09:53:01.253Z,43.10
2017-08-21T09:55:29.910Z,43.00
2017-08-21T09:57:58.438Z,43.10
2017-08-21T10:00:27.118Z,43.20
2017-08-21T10:02:56.115Z,43.10
2017-08-21T10:05:25.450Z,43.00
2017-08-21T10:07:54.167Z,42.90
2017-08-21T10:10:22.750Z,42.80
2017-08-21T10:12:51.278Z,42.70
2017-08-21T10:15:19.957Z,42.60
2017-08-21T10:17:48.915Z,42.70
2017-08-21T10:20:17.529Z,42.70
2017-08-21T10:22:46.211Z,42.80
2017-08-21T10:25:15.018Z,42.70
2017-08-21T10:27:43.056Z,42.80
2017-08-21T10:30:11.611Z,42.70
2017-08-21T10:32:40.371Z,42.80
2017-08-21T10:35:09.046Z,42.70
2017-08-21T10:37:37.725Z,42.50
2017-08-21T10:40:05.882Z,42.40
2017-08-21T10:42:34.562Z,42.40
2017-08-21T10:45:02.959Z,42.40
2017-08-21T10:47:31.801Z,42.50
2017-08-21T10:50:00.382Z,42.30
2017-08-21T10:52:29.106Z,42.10
2017-08-21T10:54:57.310Z,42.20
2017-08-21T10:57:25.940Z,42.10
2017-08-21T10:59:54.659Z,42.30
2017-08-21T11:02:23.510Z,42.40
2017-08-21T11:04:51.955Z,42.40
2017-08-21T11:07:20.478Z,42.30
2017-08-21T11:09:49.234Z,42.40
2017-08-21T11:12:17.706Z,42.20
2017-08-21T11:14:45.742Z,42.20
2017-08-21T11:17:14.274Z,42.10
2017-08-21T11:19:42.862Z,42.10
2017-08-21T11:22:11.571Z,42.30
2017-08-21T11:24:40.545Z,42.10
2017-08-21T11:27:09.322Z,42.30
2017-08-21T11:29:37.915Z,42.20
2017-08-21T11:32:06.711Z,42.10
2017-08-21T11:34:34.735Z,42.00
2017-08-21T11:37:03.190Z,42.10
2017-08-21T11:39:32.058Z,42.10
2017-08-21T11:42:00.734Z,42.10
2017-08-21T11:44:29.503Z,41.90
2017-08-21T11:46:58.173Z,41.90
2017-08-21T11:49:26.699Z,41.90
2017-08-21T11:51:55.395Z,41.80
2017-08-21T11:54:23.546Z,41.80
2017-08-21T11:56:52.146Z,41.80
2017-08-21T11:59:20.894Z,41.80
2017-08-21T12:01:49.383Z,41.70
2017-08-21T12:04:18.019Z,41.60
2017-08-21T12:06:46.587Z,41.40
2017-08-21T12:09:15.190Z,41.40
2017-08-21T12:11:43.763Z,41.20
2017-08-21T12:14:12.370Z,41.20
2017-08-21T12:16:41.298Z,41.10
2017-08-21T12:19:09.708Z,41.10
2017-08-21T12:21:38.311Z,41.10
2017-08-21T12:24:07.222Z,41.10
2017-08-21T12:26:35.241Z,40.90
2017-08-21T12:29:03.858Z,41.00
2017-08-21T12:31:32.640Z,41.10
2017-08-21T12:34:01.418Z,41.00
2017-08-21T12:36:29.894Z,40.80
2017-08-21T12:38:58.733Z,40.80
2017-08-21T12:41:27.418Z,40.70
2017-08-21T12:43:56.078Z,40.80
2017-08-21T12:46:24.854Z,40.70
2017-08-21T12:48:53.386Z,40.60
2017-08-21T12:51:21.971Z,40.50
2017-08-21T12:53:50.831Z,40.40
2017-08-21T12:56:19.573Z,40.30
2017-08-21T12:58:48.026Z,40.30
2017-08-21T13:01:16.800Z,40.30
2017-08-21T13:03:45.478Z,40.30
2017-08-21T13:06:14.251Z,40.30
2017-08-21T13:08:42.920Z,40.20
2017-08-21T13:11:11.363Z,40.20
2017-08-21T13:13:39.978Z,40.00
2017-08-21T13:16:08.759Z,40.00
2017-08-21T13:18:37.218Z,40.00
2017-08-21T13:21:06.557Z,39.90
2017-08-21T13:23:35.287Z,39.90
2017-08-21T13:26:03.894Z,39.80
2017-08-21T13:28:32.383Z,39.60
2017-08-21T13:31:01.099Z,39.50
2017-08-21T13:33:29.646Z,39.50
2017-08-21T13:35:58.375Z,39.40
2017-08-21T13:38:26.964Z,39.30
2017-08-21T13:40:55.406Z,39.40
2017-08-21T13:43:24.159Z,39.50
2017-08-21T13:45:53.115Z,39.50
2017-08-21T13:48:21.513Z,39.40
2017-08-21T13:50:50.122Z,39.20
2017-08-21T13:53:18.834Z,39.20
2017-08-21T13:55:47.272Z,39.20
2017-08-21T13:58:15.874Z,38.90
2017-08-21T14:00:44.665Z,39.00
2017-08-21T14:03:13.350Z,38.80
2017-08-21T14:05:42.130Z,38.70
2017-08-21T14:08:10.953Z,38.60
2017-08-21T14:10:39.528Z,38.70
2017-08-21T14:13:08.133Z,38.70
2017-08-21T14:15:36.331Z,38.70
2017-08-21T14:18:05.771Z,38.50
2017-08-21T14:20:34.248Z,38.50
2017-08-21T14:23:03.095Z,38.50
2017-08-21T14:25:31.746Z,38.40
2017-08-21T14:28:00.389Z,38.40
2017-08-21T14:30:28.522Z,38.30
2017-08-21T14:32:57.185Z,38.20
2017-08-21T14:35:25.966Z,38.20
2017-08-21T14:37:54.527Z,38.20
2017-08-21T14:40:22.946Z,38.10
2017-08-21T14:42:51.062Z,38.00
2017-08-21T14:45:19.810Z,37.90
2017-08-21T14:47:48.391Z,37.80
2017-08-21T14:50:17.066Z,37.70
2017-08-21T14:52:45.681Z,37.80
2017-08-21T14:55:14.250Z,37.70
2017-08-21T14:57:42.270Z,37.60
2017-08-21T15:00:11.143Z,37.60
2017-08-21T15:02:39.722Z,37.60
2017-08-21T15:05:08.686Z,37.60
2017-08-21T15:07:37.683Z,37.60
2017-08-21T15:10:06.462Z,37.50
2017-08-21T15:12:34.591Z,37.40
2017-08-21T15:15:03.366Z,37.40
2017-08-21T15:17:32.013Z,37.50
2017-08-21T15:20:00.542Z,37.50
2017-08-21T15:22:29.294Z,37.40
2017-08-21T15:24:57.986Z,37.30
2017-08-21T15:27:26.743Z,37.30
2017-08-21T15:29:55.323Z,37.50
2017-08-21T15:32:23.946Z,37.40
2017-08-21T15:34:51.990Z,37.50
2017-08-21T15:37:20.734Z,37.40
2017-08-21T15:39:49.305Z,37.40
2017-08-21T15:42:17.963Z,37.40
2017-08-21T15:44:46.622Z,37.50
2017-08-21T15:47:15.147Z,37.50
2017-08-21T15:49:43.830Z,37.50
2017-08-21T15:52:12.727Z,37.50
2017-08-21T15:54:40.762Z,37.60
2017-08-21T15:57:09.513Z,37.50
2017-08-21T15:59:38.278Z,37.50
2017-08-21T16:02:06.949Z,37.50
2017-08-21T16:04:35.501Z,37.40
2017-08-21T16:07:04.248Z,37.50
2017-08-21T16:09:32.899Z,37.50
2017-08-21T16:12:01.601Z,37.40
2017-08-21T16:14:30.051Z,37.40
2017-08-21T16:16:58.602Z,37.30
2017-08-21T16:19:27.323Z,37.30
2017-08-21T16:21:56.345Z,37.30
2017-08-21T16:24:24.817Z,37.30
2017-08-21T16:26:53.425Z,37.20
2017-08-21T16:29:22.339Z,37.20
2017-08-21T16:31:51.066Z,37.10
2017-08-21T16:34:19.462Z,37.20
2017-08-21T16:36:48.381Z,37.20
2017-08-21T16:39:16.990Z,37.10
2017-08-21T16:41:45.854Z,37.00
2017-08-21T16:44:14.466Z,37.00
2017-08-21T16:46:42.857Z,37.00
2017-08-21T16:49:11.506Z,36.90
2017-08-21T16:51:40.359Z,36.90
2017-08-21T16:54:08.962Z,36.70
2017-08-21T16:56:37.578Z,36.70
2017-08-21T16:59:06.390Z,36.80
2017-08-21T17:01:35.110Z,36.70
2017-08-21T17:04:03.562Z,36.80
2017-08-21T17:06:32.214Z,36.70
2017-08-21T17:09:00.902Z,36.70
2017-08-21T17:11:29.863Z,36.70
2017-08-21T17:13:58.337Z,36.70
2017-08-21T17:16:26.970Z,36.70
2017-08-21T17:18:56.262Z,36.70
2017-08-21T17:21:24.986Z,36.60
2017-08-21T17:23:53.562Z,36.50
2017-08-21T17:26:22.112Z,36.50
2017-08-21T17:28:50.700Z,36.60
2017-08-21T17:31:19.298Z,36.50
2017-08-21T17:33:47.874Z,36.60
2017-08-21T17:36:16.970Z,36.60
2017-08-21T17:38:45.721Z,36.60
2017-08-21T17:41:14.230Z,36.60
2017-08-21T17:43:43.170Z,36.70
2017-08-21T17:46:11.651Z,36.60
2017-08-21T17:48:40.371Z,36.60
2017-08-21T17:51:08.962Z,36.70
2017-08-21T17:53:37.278Z,36.70
2017-08-21T17:56:05.927Z,36.70
2017-08-21T17:58:34.402Z,36.70
2017-08-21T18:01:02.822Z,36.70
2017-08-21T18:03:31.506Z,36.70
2017-08-21T18:06:00.015Z,36.70
2017-08-21T18:08:28.583Z,36.70
2017-08-21T18:10:57.263Z,36.60
2017-08-21T18:13:25.941Z,36.40
2017-08-21T18:15:54.415Z,36.30
2017-08-21T18:18:23.052Z,36.30
2017-08-21T18:20:51.810Z,36.10
2017-08-21T18:23:20.587Z,36.10
2017-08-21T18:25:49.058Z,36.10
2017-08-21T18:28:17.771Z,36.00
2017-08-21T18:30:45.794Z,36.00
2017-08-21T18:33:14.322Z,35.90
2017-08-21T18:35:43.018Z,35.90
2017-08-21T18:38:11.662Z,35.80
2017-08-21T18:40:40.154Z,35.90
2017-08-21T18:43:09.006Z,35.90
2017-08-21T18:45:37.586Z,36.00
2017-08-21T18:48:06.231Z,36.10
2017-08-21T18:50:34.791Z,36.10
2017-08-21T18:53:03.311Z,36.10
2017-08-21T18:55:31.894Z,36.10
2017-08-21T18:58:00.747Z,36.10
2017-08-21T19:00:29.742Z,36.10
2017-08-21T19:02:58.144Z,36.10
2017-08-21T19:05:26.856Z,36.10
2017-08-21T19:07:55.430Z,36.10
2017-08-21T19:10:24.212Z,36.10
2017-08-21T19:12:52.766Z,36.20
2017-08-21T19:15:21.291Z,36.20
2017-08-21T19:17:49.974Z,36.10
2017-08-21T19:20:18.136Z,36.10
2017-08-21T19:22:46.766Z,36.20
2017-08-21T19:25:15.414Z,36.20
2017-08-21T19:27:44.015Z,36.20
2017-08-21T19:30:12.494Z,36.20
2017-08-21T19:32:41.106Z,36.20
2017-08-21T19:35:09.222Z,36.20
2017-08-21T19:37:37.867Z,36.20
2017-08-21T19:40:06.486Z,36.20
2017-08-21T19:42:34.610Z,36.20
2017-08-21T19:45:03.246Z,36.20
2017-08-21T19:47:31.934Z,36.20
2017-08-21T19:50:00.694Z,36.10
2017-08-21T19:52:28.827Z,36.20
2017-08-21T19:54:57.614Z,36.20
2017-08-21T19:57:26.135Z,36.20
2017-08-21T19:59:54.703Z,36.20
2017-08-21T20:02:23.542Z,36.20
2017-08-21T20:04:52.111Z,36.20
2017-08-21T20:07:20.553Z,36.10
2017-08-21T20:09:49.163Z,36.10
2017-08-21T20:12:18.024Z,36.10
2017-08-21T20:14:46.054Z,36.10
2017-08-21T20:17:14.610Z,36.00
2017-08-21T20:19:43.434Z,36.00
2017-08-21T20:22:11.836Z,36.00
2017-08-21T20:24:40.646Z,35.90
2017-08-21T20:27:09.538Z,35.90
2017-08-21T20:29:38.146Z,35.90
2017-08-21T20:32:06.905Z,36.00
2017-08-21T20:34:35.538Z,36.00
2017-08-21T20:37:04.083Z,35.90
2017-08-21T20:39:32.766Z,35.90
2017-08-21T20:42:01.659Z,35.90
2017-08-21T20:44:30.306Z,35.90
2017-08-21T20:46:58.587Z,35.90
2017-08-21T20:49:27.618Z,35.90
2017-08-21T20:51:56.206Z,35.90
2017-08-21T20:54:24.338Z,36.00
2017-08-21T20:56:52.970Z,35.90
2017-08-21T20:59:21.647Z,35.90
2017-08-21T21:01:49.667Z,35.90
2017-08-21T21:04:18.350Z,35.90
2017-08-21T21:06:46.378Z,35.90
2017-08-21T21:09:14.494Z,35.90
2017-08-21T21:11:43.007Z,35.90
2017-08-21T21:14:11.651Z,35.90
2017-08-21T21:16:40.271Z,35.90
2017-08-21T21:19:08.762Z,35.90
2017-08-21T21:21:37.378Z,35.90
2017-08-21T21:24:05.962Z,35.80
2017-08-21T21:26:34.918Z,35.80
2017-08-21T21:29:03.243Z,35.80
2017-08-21T21:31:31.759Z,35.80
2017-08-21T21:34:00.638Z,35.80
2017-08-21T21:36:29.259Z,35.70
2017-08-21T21:38:57.659Z,35.80
2017-08-21T21:41:26.262Z,35.70
2017-08-21T21:43:54.911Z,35.70
2017-08-21T21:46:23.307Z,35.70
2017-08-21T21:48:51.873Z,35.70
2017-08-21T21:51:20.497Z,35.70
2017-08-21T21:53:49.176Z,35.70
2017-08-21T21:56:17.289Z,35.60
2017-08-21T21:58:45.975Z,35.60
2017-08-21T22:01:14.567Z,35.60
2017-08-21T22:03:43.251Z,35.60
2017-08-21T22:06:11.830Z,35.60
2017-08-21T22:08:40.377Z,35.60
2017-08-21T22:11:09.170Z,35.60
2017-08-21T22:13:37.770Z,35.60
2017-08-21T22:16:06.382Z,35.60
2017-08-21T22:18:35.139Z,35.60
2017-08-21T22:21:03.603Z,35.40
2017-08-21T22:23:32.026Z,35.50
2017-08-21T22:26:00.851Z,35.50
2017-08-21T22:28:29.262Z,35.50
2017-08-21T22:30:57.791Z,35.50
2017-08-21T22:33:26.543Z,35.40
2017-08-21T22:35:55.220Z,35.30
2017-08-21T22:38:23.747Z,35.30
2017-08-21T22:40:52.405Z,35.20
2017-08-21T22:43:21.090Z,35.10
2017-08-21T22:45:49.868Z,35.20
2017-08-21T22:48:18.430Z,35.10
2017-08-21T22:50:46.878Z,35.10
2017-08-21T22:53:15.666Z,35.00
2017-08-21T22:55:43.792Z,35.10
2017-08-21T22:58:12.427Z,35.10
2017-08-21T23:00:41.078Z,35.10
2017-08-21T23:03:09.191Z,35.10
2017-08-21T23:05:37.839Z,35.10
2017-08-21T23:08:06.619Z,35.10
2017-08-21T23:10:35.251Z,35.10
2017-08-21T23:13:03.825Z,35.10
2017-08-21T23:15:32.373Z,35.00
2017-08-21T23:18:01.029Z,35.10
2017-08-21T23:20:29.549Z,35.10
2017-08-21T23:22:57.570Z,35.00
2017-08-21T23:25:26.209Z,34.80
2017-08-21T23:27:54.825Z,34.80
2017-08-21T23:30:23.576Z,34.80
2017-08-21T23:32:52.280Z,34.70
2017-08-21T23:35:20.867Z,34.70
2017-08-21T23:37:48.898Z,34.70
2017-08-21T23:40:17.551Z,34.80
2017-08-21T23:42:46.026Z,34.70
2017-08-21T23:45:14.675Z,34.80
2017-08-21T23:47:43.402Z,34.70
2017-08-21T23:50:11.985Z,34.70
2017-08-21T23:52:40.646Z,34.70
2017-08-21T23:55:08.874Z,34.70
2017-08-21T23:57:37.406Z,34.70
